Stockville, Nebraska
Current Conditions -  °F | °C
As of 6:53 PM on Sunday 21 Dec 2014 (Local Time) from KMCK Reporting Station
Haze Haze  
Wind Chill: 32°   Ceiling: 10000
Heat Index: 37°   Visibility: 6mi
Dew Point: 34°   Wind: 6mph
Humidity: 89%   Direction: 200°SSW
Pressure: 29.54"   Gusts: NA
Location:  40.53°N, 100.38°W
Report Text: KMCK 220053Z AUTO 20005KT 6SM BR OVC100 03/01 A2954 RMK AO2 SLP020 T00280011
Loading
Personal Weather Stations






























Interactive Weather Map New forecast layout! Learn more

10-Day Weather Forecast

Advertisements
Track Severe Weather on mobile